Time;durP1;ratioP1;P1;durP2;ratioP2;P2;SDS_P1;SDS_P2;PMS_P1;PMS_P2;Temp;Humidity;BMP_temperature;BMP_pressure;BME280_temperature;BME280_humidity;BME280_pressure;Samples;Min_cycle;Max_cycle;Signal;HPM_P1;HPM_P2
2023/09/05 00:01:45;;;;;;;1.65;1.55;;;;;;;21.16;62.71;101946.06;4986321;28;20065;-53
2023/09/05 00:04:12;;;;;;;1.40;1.30;;;;;;;21.16;62.68;101958.75;4985552;28;20449;-54
2023/09/05 00:06:38;;;;;;;1.90;1.50;;;;;;;21.15;62.77;101952.47;4985600;28;20515;-53
2023/09/05 00:09:05;;;;;;;1.63;1.52;;;;;;;21.16;62.55;101958.75;4988327;28;20057;-54
2023/09/05 00:11:31;;;;;;;2.55;1.85;;;;;;;21.15;62.67;101949.78;4988605;28;20084;-54
2023/09/05 00:13:56;;;;;;;1.70;1.60;;;;;;;21.16;62.18;101942.50;4988133;28;20049;-54
2023/09/05 00:16:21;;;;;;;1.60;1.50;;;;;;;21.15;62.75;101935.34;4988462;28;20042;-54
2023/09/05 00:18:47;;;;;;;2.92;1.60;;;;;;;21.15;62.66;101940.78;4989750;28;20035;-54
2023/09/05 00:21:15;;;;;;;2.03;1.65;;;;;;;21.15;62.27;101936.22;4995024;28;20070;-54
2023/09/05 00:23:40;;;;;;;2.00;1.90;;;;;;;21.14;62.67;101939.06;4989393;28;20037;-53
2023/09/05 00:26:06;;;;;;;2.25;1.55;;;;;;;21.14;62.48;101939.91;4989729;28;20125;-54
2023/09/05 00:28:32;;;;;;;2.00;1.75;;;;;;;21.14;62.22;101939.91;4989603;28;20110;-54
2023/09/05 00:30:59;;;;;;;1.70;1.60;;;;;;;21.14;62.44;101944.50;4989667;28;20049;-54
2023/09/05 00:33:24;;;;;;;1.88;1.77;;;;;;;21.13;62.65;101942.75;4987254;28;20046;-54
2023/09/05 00:35:53;;;;;;;1.52;1.42;;;;;;;21.13;62.83;101940.91;4988550;28;20126;-55
2023/09/05 00:38:19;;;;;;;1.60;1.50;;;;;;;21.14;62.26;101949.91;4987940;28;20044;-54
2023/09/05 00:40:44;;;;;;;1.90;1.70;;;;;;;21.13;62.33;101946.31;4988833;28;20118;-54
2023/09/05 00:43:09;;;;;;;1.67;1.50;;;;;;;21.12;62.50;101947.34;4988648;28;20504;-54
2023/09/05 00:45:42;;;;;;;1.85;1.70;;;;;;;21.13;62.35;101942.75;4988778;28;20034;-54
2023/09/05 00:48:08;;;;;;;1.70;1.60;;;;;;;21.12;62.12;101951.91;4986876;28;20037;-54
2023/09/05 00:50:33;;;;;;;1.83;1.73;;;;;;;21.12;62.03;101954.59;4988741;28;20410;-53
2023/09/05 00:53:00;;;;;;;1.67;1.58;;;;;;;21.13;62.00;101959.88;4988219;28;20042;-52
2023/09/05 00:55:26;;;;;;;1.95;1.75;;;;;;;21.12;62.43;101963.59;4988136;28;20045;-54
2023/09/05 00:57:52;;;;;;;1.75;1.65;;;;;;;21.12;62.38;101949.19;4987954;28;20034;-53
2023/09/05 01:00:18;;;;;;;2.17;1.80;;;;;;;21.12;62.52;101951.91;4989648;28;20473;-54
2023/09/05 01:02:44;;;;;;;1.90;1.63;;;;;;;21.11;62.08;101951.03;4988578;28;20034;-53
2023/09/05 01:05:10;;;;;;;1.63;1.52;;;;;;;21.11;62.58;101951.03;4988537;28;20149;-54
2023/09/05 01:07:59;;;;;;;1.70;1.60;;;;;;;21.12;61.93;101944.63;4986942;28;20039;-54
2023/09/05 01:10:37;;;;;;;1.52;1.42;;;;;;;21.11;62.47;101944.75;4990826;28;20038;-54
2023/09/05 01:13:03;;;;;;;1.58;1.48;;;;;;;21.10;61.83;101943.91;4988132;28;20109;-54
2023/09/05 01:15:28;;;;;;;1.85;1.75;;;;;;;21.10;62.47;101938.50;4987873;28;20476;-53
2023/09/05 01:17:54;;;;;;;1.73;1.63;;;;;;;21.11;61.98;101942.06;4987486;28;20093;-54
2023/09/05 01:20:26;;;;;;;1.95;1.85;;;;;;;21.09;61.98;101943.06;4987415;28;20035;-53
2023/09/05 01:23:07;;;;;;;2.17;1.95;;;;;;;21.09;61.87;101945.78;4988944;28;20121;-54
2023/09/05 01:25:33;;;;;;;2.80;1.95;;;;;;;21.09;62.27;101936.78;4986848;28;20435;-54
2023/09/05 01:27:59;;;;;;;2.30;1.80;;;;;;;21.08;61.94;101941.34;4988041;28;20036;-53
2023/09/05 01:30:27;;;;;;;2.00;1.90;;;;;;;21.07;61.80;101945.03;4987622;28;20038;-54
2023/09/05 01:32:53;;;;;;;2.42;1.73;;;;;;;21.08;62.05;101943.19;4987333;28;20376;-53
2023/09/05 01:35:18;;;;;;;1.88;1.55;;;;;;;21.08;62.19;101951.31;4987492;28;20038;-54
2023/09/05 01:37:44;;;;;;;1.80;1.70;;;;;;;21.07;61.99;101938.75;4986691;28;20038;-54
2023/09/05 01:40:10;;;;;;;1.85;1.67;;;;;;;21.08;62.31;101941.34;4987924;28;20050;-54
2023/09/05 01:42:35;;;;;;;1.92;1.75;;;;;;;21.07;61.84;101944.19;4987770;28;20030;-54
2023/09/05 01:45:00;;;;;;;1.52;1.42;;;;;;;21.07;62.17;101938.75;4988107;28;20038;-54
2023/09/05 01:47:26;;;;;;;1.80;1.70;;;;;;;21.07;61.89;101945.03;4988132;28;20045;-53
2023/09/05 01:49:51;;;;;;;2.00;1.65;;;;;;;21.06;61.89;101940.63;4988681;28;20062;-53
2023/09/05 01:52:16;;;;;;;1.75;1.45;;;;;;;21.06;62.16;101940.63;4988489;28;20117;-53
2023/09/05 01:54:42;;;;;;;1.80;1.70;;;;;;;21.05;62.04;101941.59;4987918;28;20384;-53
2023/09/05 01:57:07;;;;;;;2.63;2.00;;;;;;;21.06;62.26;101939.78;4987251;28;20109;-54
2023/09/05 01:59:33;;;;;;;2.75;1.52;;;;;;;21.05;61.76;101946.19;4986914;28;20035;-53
2023/09/05 02:01:58;;;;;;;2.17;1.98;;;;;;;21.05;61.96;101952.44;4986882;28;20034;-54
2023/09/05 02:04:23;;;;;;;1.85;1.67;;;;;;;21.05;61.57;101954.31;4986471;28;20366;-54
2023/09/05 02:06:49;;;;;;;1.80;1.70;;;;;;;21.05;61.63;101952.44;4987472;28;20038;-54
2023/09/05 02:09:14;;;;;;;2.08;1.88;;;;;;;21.04;62.01;101945.31;4987145;28;20035;-54
2023/09/05 02:11:39;;;;;;;2.40;1.80;;;;;;;21.04;61.88;101941.78;4987023;28;20041;-54
2023/09/05 02:14:05;;;;;;;2.17;1.60;;;;;;;21.04;61.45;101947.19;4987540;28;20038;-54
2023/09/05 02:16:31;;;;;;;2.30;2.00;;;;;;;21.04;61.73;101942.63;4987630;28;20033;-54
2023/09/05 02:18:56;;;;;;;1.63;1.52;;;;;;;21.03;61.48;101943.59;4992952;28;20037;-54
2023/09/05 02:21:21;;;;;;;2.30;2.05;;;;;;;21.03;61.43;101942.75;4987025;28;20025;-53
2023/09/05 02:23:47;;;;;;;1.65;1.55;;;;;;;21.02;61.85;101946.47;4987550;28;20093;-54
2023/09/05 02:26:13;;;;;;;1.90;1.70;;;;;;;21.02;61.48;101939.19;4987503;28;20042;-53
2023/09/05 02:28:38;;;;;;;2.85;1.88;;;;;;;21.02;61.84;101932.94;4987393;28;20058;-53
2023/09/05 02:31:06;;;;;;;1.52;1.42;;;;;;;21.01;61.96;101929.34;4986466;28;20038;-53
2023/09/05 02:33:33;;;;;;;1.83;1.70;;;;;;;21.01;61.34;101928.50;4986187;28;20424;-52
2023/09/05 02:36:17;;;;;;;2.20;1.80;;;;;;;21.02;61.49;101935.63;4985017;28;20030;-54
2023/09/05 02:38:44;;;;;;;1.45;1.35;;;;;;;21.01;61.46;101928.50;4987454;28;20041;-53
2023/09/05 02:41:11;;;;;;;2.00;1.90;;;;;;;21.00;61.30;101938.47;4987092;28;20034;-54
2023/09/05 02:43:37;;;;;;;3.13;1.65;;;;;;;21.01;61.78;101942.88;4985985;28;20037;-54
2023/09/05 02:46:02;;;;;;;2.08;1.88;;;;;;;21.00;61.50;101938.47;4989264;28;20027;-54
2023/09/05 02:48:28;;;;;;;1.55;1.45;;;;;;;21.00;61.55;101930.34;4985897;28;20072;-54
2023/09/05 02:51:04;;;;;;;2.20;1.60;;;;;;;21.01;61.78;101933.91;4986206;28;20042;-54
2023/09/05 02:53:30;;;;;;;1.58;1.48;;;;;;;20.99;61.30;101934.06;4985481;28;20054;-54
2023/09/05 02:55:55;;;;;;;2.45;1.73;;;;;;;20.99;61.52;101931.34;4986666;28;20058;-54
2023/09/05 02:58:21;;;;;;;1.67;1.58;;;;;;;20.99;61.28;101919.66;4987416;28;20109;-53
2023/09/05 03:00:49;;;;;;;2.08;1.55;;;;;;;20.99;61.60;101920.50;4988131;28;20040;-53
2023/09/05 03:03:16;;;;;;;1.55;1.45;;;;;;;20.98;61.17;101918.81;4987060;28;20705;-54
2023/09/05 03:05:42;;;;;;;1.70;1.60;;;;;;;20.98;61.38;101913.41;4986812;28;20045;-53
2023/09/05 03:08:08;;;;;;;1.75;1.65;;;;;;;20.97;61.66;101911.69;4986833;28;20106;-54
2023/09/05 03:10:33;;;;;;;2.63;1.75;;;;;;;20.97;61.51;101911.69;4985153;28;20046;-53
2023/09/05 03:12:59;;;;;;;1.77;1.67;;;;;;;20.97;61.57;101906.25;4985835;28;20062;-54
2023/09/05 03:15:25;;;;;;;1.60;1.50;;;;;;;20.98;61.59;101920.66;4986290;28;20481;-53
2023/09/05 03:17:51;;;;;;;2.28;1.60;;;;;;;20.96;61.20;101912.69;4986130;28;20425;-54
2023/09/05 03:20:18;;;;;;;1.40;1.30;;;;;;;20.97;61.24;101916.25;4985580;28;20043;-53
2023/09/05 03:22:44;;;;;;;2.33;1.45;;;;;;;20.96;61.60;101909.09;4986614;28;20117;-53
2023/09/05 03:25:10;;;;;;;2.15;1.95;;;;;;;20.95;61.19;101905.53;4985955;28;20062;-53
2023/09/05 03:27:35;;;;;;;1.92;1.50;;;;;;;20.96;61.40;101906.41;4985975;28;20492;-52
2023/09/05 03:30:01;;;;;;;1.75;1.60;;;;;;;20.96;61.17;101915.41;4985788;28;20109;-53
2023/09/05 03:32:26;;;;;;;1.70;1.60;;;;;;;20.94;61.47;101911.94;4985298;28;20121;-54
2023/09/05 03:34:52;;;;;;;1.60;1.50;;;;;;;20.95;61.56;101915.53;4985483;28;20061;-54
2023/09/05 03:37:17;;;;;;;1.73;1.60;;;;;;;20.93;61.16;101910.25;4984840;28;20392;-54
2023/09/05 03:39:43;;;;;;;1.70;1.60;;;;;;;20.94;61.42;101906.53;4985032;28;20062;-54
2023/09/05 03:42:12;;;;;;;1.83;1.70;;;;;;;20.94;61.09;101905.69;4986075;28;20041;-54
2023/09/05 03:44:37;;;;;;;2.03;1.83;;;;;;;20.94;60.98;101905.69;4984969;28;20035;-54
2023/09/05 03:47:03;;;;;;;1.80;1.70;;;;;;;20.94;61.01;101906.53;4991377;28;20019;-53
2023/09/05 03:49:28;;;;;;;2.10;1.90;;;;;;;20.93;61.41;101904.84;4991113;28;20050;-53
2023/09/05 03:51:57;;;;;;;1.50;1.40;;;;;;;20.94;61.11;101911.09;4991583;28;20534;-53
2023/09/05 03:54:23;;;;;;;2.15;2.00;;;;;;;20.93;61.39;101904.84;4990368;28;20508;-53
2023/09/05 03:56:48;;;;;;;1.50;1.40;;;;;;;20.92;61.23;101903.09;4989991;28;20053;-53
2023/09/05 03:59:14;;;;;;;2.30;1.65;;;;;;;20.93;61.15;101904.00;4988774;28;20030;-54
2023/09/05 04:01:39;;;;;;;1.60;1.50;;;;;;;20.93;61.17;101904.00;4995954;28;20133;-54
2023/09/05 04:04:08;;;;;;;2.20;2.00;;;;;;;20.92;61.38;101908.53;4988800;28;20445;-54
2023/09/05 04:06:33;;;;;;;2.55;1.92;;;;;;;20.92;61.25;101899.56;4989005;28;20042;-54
2023/09/05 04:08:58;;;;;;;1.52;1.42;;;;;;;20.93;61.05;101904.00;4988719;28;20377;-54
2023/09/05 04:11:24;;;;;;;3.03;1.90;;;;;;;20.92;60.93;101894.13;4989125;28;20500;-53
2023/09/05 04:13:49;;;;;;;2.20;1.90;;;;;;;20.91;60.94;101896.00;4988862;28;20070;-54
2023/09/05 04:16:14;;;;;;;1.60;1.50;;;;;;;20.92;61.35;101891.44;4989048;28;20027;-54
2023/09/05 04:18:40;;;;;;;1.80;1.63;;;;;;;20.92;61.01;101891.44;4989007;28;20118;-54
2023/09/05 04:21:05;;;;;;;1.70;1.60;;;;;;;20.91;60.99;101881.63;4988816;28;20057;-54
2023/09/05 04:23:31;;;;;;;1.63;1.52;;;;;;;20.91;61.22;101890.59;4988510;28;20034;-54
2023/09/05 04:26:01;;;;;;;1.70;1.60;;;;;;;20.90;60.95;101888.84;4989756;28;20039;-54
2023/09/05 04:28:27;;;;;;;1.73;1.63;;;;;;;20.91;61.17;101892.44;4989703;28;20034;-53
2023/09/05 04:30:55;;;;;;;1.58;1.48;;;;;;;20.89;60.87;101885.31;4992969;28;20485;-53
2023/09/05 04:33:22;;;;;;;1.77;1.60;;;;;;;20.89;61.30;101888.00;4988964;28;20477;-54
2023/09/05 04:35:47;;;;;;;1.88;1.77;;;;;;;20.89;61.38;101884.47;4989872;28;20085;-53
2023/09/05 04:38:13;;;;;;;1.85;1.50;;;;;;;20.89;61.28;101887.16;4992837;28;20428;-54
2023/09/05 04:40:38;;;;;;;1.70;1.60;;;;;;;20.89;61.42;101898.00;4989923;28;20117;-53
2023/09/05 04:43:04;;;;;;;1.60;1.50;;;;;;;20.89;60.79;101892.56;4990154;28;20041;-54
2023/09/05 04:45:29;;;;;;;1.65;1.55;;;;;;;20.88;60.78;101890.84;4987624;28;20029;-54
2023/09/05 04:47:55;;;;;;;1.70;1.60;;;;;;;20.88;60.93;101880.03;4989304;28;20053;-54
2023/09/05 04:50:21;;;;;;;1.60;1.50;;;;;;;20.88;60.84;101880.03;4988603;28;20030;-53
2023/09/05 04:52:46;;;;;;;1.73;1.60;;;;;;;20.88;61.15;101877.31;4988581;28;20030;-53
2023/09/05 04:55:11;;;;;;;1.95;1.40;;;;;;;20.87;61.06;101873.75;4986619;28;20072;-54
2023/09/05 04:57:37;;;;;;;1.70;1.60;;;;;;;20.87;61.00;101879.19;4989953;28;20046;-54
2023/09/05 05:00:04;;;;;;;1.45;1.35;;;;;;;20.86;60.96;101882.03;4987598;28;20042;-54
2023/09/05 05:02:31;;;;;;;2.03;1.80;;;;;;;20.86;60.87;101880.16;4992985;28;20098;-53
2023/09/05 05:04:57;;;;;;;1.55;1.42;;;;;;;20.86;60.85;101882.88;4993649;28;20033;-52
2023/09/05 05:07:22;;;;;;;1.63;1.52;;;;;;;20.85;60.71;101875.75;4990139;28;20556;-54
2023/09/05 05:09:48;;;;;;;1.77;1.67;;;;;;;20.86;61.28;101871.19;4995446;28;20085;-51
2023/09/05 05:12:13;;;;;;;2.63;1.88;;;;;;;20.85;60.71;101875.75;4994500;28;20061;-54
2023/09/05 05:14:39;;;;;;;1.65;1.55;;;;;;;20.85;60.91;101878.47;4994291;28;20038;-53
2023/09/05 05:17:06;;;;;;;1.45;1.35;;;;;;;20.85;60.79;101883.88;4993483;28;20109;-54
2023/09/05 05:19:31;;;;;;;1.58;1.48;;;;;;;20.85;60.88;101880.31;4991709;28;20081;-54
2023/09/05 05:21:57;;;;;;;2.03;1.60;;;;;;;20.85;60.56;101886.59;4989038;28;20034;-53
2023/09/05 05:24:22;;;;;;;1.60;1.50;;;;;;;20.84;60.74;101894.84;4986095;28;20054;-54
2023/09/05 05:26:48;;;;;;;1.65;1.50;;;;;;;20.84;60.64;101892.13;4986911;28;20484;-54
2023/09/05 05:29:14;;;;;;;2.08;1.92;;;;;;;20.84;60.91;101892.13;4988356;28;20555;-53
2023/09/05 05:31:39;;;;;;;1.40;1.30;;;;;;;20.84;60.94;101889.44;4988043;28;20035;-53
2023/09/05 05:34:05;;;;;;;1.42;1.33;;;;;;;20.84;60.96;101900.25;4988263;28;20023;-54
2023/09/05 05:36:31;;;;;;;1.55;1.45;;;;;;;20.83;60.99;101901.25;4987793;28;20030;-54
2023/09/05 05:38:57;;;;;;;1.90;1.80;;;;;;;20.83;60.55;101898.56;4986841;28;20095;-54
2023/09/05 05:41:23;;;;;;;2.10;1.70;;;;;;;20.83;60.98;101904.81;4986218;28;20034;-53
2023/09/05 05:43:49;;;;;;;1.60;1.50;;;;;;;20.84;61.04;101911.09;4986284;28;20037;-54
2023/09/05 05:46:14;;;;;;;1.85;1.73;;;;;;;20.83;60.92;101910.22;4992207;28;20057;-54
2023/09/05 05:48:42;;;;;;;1.70;1.60;;;;;;;20.83;60.61;101909.38;4986951;28;20030;-53
2023/09/05 05:51:08;;;;;;;1.38;1.27;;;;;;;20.83;60.65;101899.41;4987247;28;20069;-54
2023/09/05 05:53:33;;;;;;;1.70;1.60;;;;;;;20.83;60.29;101895.84;4987929;28;20039;-53
2023/09/05 05:55:59;;;;;;;1.70;1.60;;;;;;;20.82;60.49;101900.38;4975660;28;20125;-53
2023/09/05 05:58:24;;;;;;;1.40;1.30;;;;;;;20.82;60.55;101900.38;4987454;28;20043;-52
2023/09/05 06:00:52;;;;;;;1.80;1.50;;;;;;;20.82;61.01;101910.38;4994082;28;20034;-54
2023/09/05 06:03:18;;;;;;;2.17;1.55;;;;;;;20.82;60.80;101907.66;4991192;28;20035;-54
2023/09/05 06:05:44;;;;;;;1.50;1.40;;;;;;;20.82;60.74;101910.38;4986868;28;20031;-54
2023/09/05 06:08:10;;;;;;;1.50;1.40;;;;;;;20.82;61.08;101907.66;4992014;28;20033;-54
2023/09/05 06:10:35;;;;;;;1.63;1.52;;;;;;;20.81;60.80;101909.53;4991498;28;20030;-54
2023/09/05 06:13:01;;;;;;;1.30;1.20;;;;;;;20.82;60.66;101910.38;4992411;28;20068;-54
2023/09/05 06:15:26;;;;;;;1.58;1.48;;;;;;;20.82;60.72;101910.38;4992478;28;20046;-53
2023/09/05 06:17:52;;;;;;;1.48;1.38;;;;;;;20.81;61.02;101909.53;4991792;28;20034;-54
2023/09/05 06:20:17;;;;;;;1.85;1.75;;;;;;;20.81;60.94;101906.81;4992654;28;20080;-54
2023/09/05 06:22:44;;;;;;;1.75;1.65;;;;;;;20.81;60.67;101906.81;4992240;28;20037;-53
2023/09/05 06:25:10;;;;;;;1.52;1.40;;;;;;;20.82;60.55;101910.38;4993140;28;20054;-54
2023/09/05 06:27:35;;;;;;;1.55;1.45;;;;;;;20.82;60.84;101913.06;4992251;28;20061;-53
2023/09/05 06:30:02;;;;;;;1.38;1.27;;;;;;;20.82;60.59;101910.38;4992626;28;20124;-54
2023/09/05 06:32:27;;;;;;;1.40;1.30;;;;;;;20.82;60.78;101907.66;4993516;28;20142;-54
2023/09/05 06:34:53;;;;;;;1.52;1.42;;;;;;;20.82;60.99;101910.38;4992503;28;20712;-54
2023/09/05 06:37:18;;;;;;;1.65;1.15;;;;;;;20.81;61.01;101900.53;4993918;28;20040;-53
2023/09/05 06:39:43;;;;;;;1.63;1.52;;;;;;;20.82;60.75;101896.84;4987214;28;20500;-54
2023/09/05 06:42:10;;;;;;;1.48;1.38;;;;;;;20.82;61.00;101899.53;4986976;28;20377;-54
2023/09/05 06:44:35;;;;;;;1.65;1.35;;;;;;;20.82;60.91;101897.69;4986559;28;20101;-55
2023/09/05 06:47:00;;;;;;;1.58;1.48;;;;;;;20.82;60.86;101896.84;4987826;28;20459;-54
2023/09/05 06:49:26;;;;;;;1.58;1.30;;;;;;;20.83;60.75;101898.56;4987745;28;20078;-54
2023/09/05 06:51:52;;;;;;;1.70;1.60;;;;;;;20.83;61.19;101903.97;4985988;28;20033;-55
2023/09/05 06:54:17;;;;;;;1.55;1.45;;;;;;;20.82;61.16;101907.66;4986563;28;20218;-54
2023/09/05 06:56:43;;;;;;;1.60;1.45;;;;;;;20.82;61.13;101896.84;4986463;28;20036;-54
2023/09/05 06:59:16;;;;;;;1.98;1.52;;;;;;;20.83;61.38;101890.44;4986498;28;20031;-54
2023/09/05 07:01:42;;;;;;;3.50;1.50;;;;;;;20.81;60.77;101890.56;4985930;28;20469;-54
2023/09/05 07:04:07;;;;;;;2.88;1.40;;;;;;;20.82;60.97;101886.00;4985184;28;20041;-54
2023/09/05 07:06:33;;;;;;;1.50;1.40;;;;;;;20.80;61.26;101891.56;4985642;28;20030;-54
2023/09/05 07:08:58;;;;;;;1.85;1.60;;;;;;;20.82;61.30;101888.72;4984068;28;20085;-52
2023/09/05 07:11:24;;;;;;;1.58;1.38;;;;;;;20.81;61.37;101884.28;4984143;28;20097;-54
2023/09/05 07:13:49;;;;;;;1.50;1.40;;;;;;;20.81;60.80;101881.56;4985822;28;20041;-54
2023/09/05 07:16:15;;;;;;;3.50;1.65;;;;;;;20.81;60.76;101885.16;4980425;28;20481;-54
2023/09/05 07:18:40;;;;;;;2.13;1.60;;;;;;;20.80;60.76;101880.72;4985464;28;20125;-54
2023/09/05 07:21:06;;;;;;;1.40;1.30;;;;;;;20.81;61.07;101884.28;4986588;28;20030;-54
2023/09/05 07:23:31;;;;;;;1.70;1.60;;;;;;;20.80;61.06;101883.44;4999836;28;20419;-52
2023/09/05 07:25:56;;;;;;;1.38;1.27;;;;;;;20.80;60.98;101878.03;4986657;28;20056;-52
2023/09/05 07:28:22;;;;;;;1.98;1.30;;;;;;;20.81;60.86;101879.75;4992161;28;20374;-52
2023/09/05 07:30:47;;;;;;;1.48;1.38;;;;;;;20.81;61.11;101879.75;4991793;28;20030;-52
2023/09/05 07:33:12;;;;;;;2.20;1.33;;;;;;;20.81;61.30;101884.28;4991792;28;20392;-52
2023/09/05 07:35:38;;;;;;;1.50;1.40;;;;;;;20.81;61.25;101881.56;4992437;28;20150;-50
2023/09/05 07:38:03;;;;;;;1.33;1.23;;;;;;;20.81;61.07;101873.44;4992194;28;20080;-52
2023/09/05 07:40:29;;;;;;;1.38;1.27;;;;;;;20.80;60.83;101877.16;4991912;28;20046;-53
2023/09/05 07:42:55;;;;;;;1.65;1.55;;;;;;;20.81;60.95;101873.44;4992161;28;20069;-53
2023/09/05 07:45:24;;;;;;;1.42;1.30;;;;;;;20.81;61.25;101873.44;4991818;28;20042;-52
2023/09/05 07:47:51;;;;;;;1.60;1.50;;;;;;;20.81;61.17;101868.03;4989905;28;20036;-52
2023/09/05 07:50:17;;;;;;;1.50;1.40;;;;;;;20.80;60.83;101866.34;4991678;28;20030;-52
2023/09/05 07:52:42;;;;;;;1.30;1.20;;;;;;;20.80;61.18;101872.59;4991829;28;20069;-52
2023/09/05 07:55:08;;;;;;;1.38;1.27;;;;;;;20.81;60.88;101870.75;4986819;28;20076;-52
2023/09/05 07:57:35;;;;;;;1.50;1.30;;;;;;;20.80;61.00;101867.19;4986186;28;20035;-52
2023/09/05 08:00:01;;;;;;;1.40;1.30;;;;;;;20.82;61.16;101880.59;4985950;28;20030;-52
2023/09/05 08:02:26;;;;;;;1.67;1.30;;;;;;;20.80;61.04;101866.34;4984490;28;20165;-53
2023/09/05 08:04:52;;;;;;;1.52;1.35;;;;;;;20.81;61.19;101878.88;4986820;28;20105;-52
2023/09/05 08:07:17;;;;;;;2.05;1.52;;;;;;;20.81;61.25;101874.34;4987900;28;20045;-52
2023/09/05 08:09:44;;;;;;;1.42;1.33;;;;;;;20.81;61.23;101873.44;4988626;28;20042;-53
2023/09/05 08:12:09;;;;;;;1.25;1.15;;;;;;;20.79;60.68;101879.03;4991877;28;20495;-53
2023/09/05 08:14:34;;;;;;;1.30;1.20;;;;;;;20.80;61.25;101891.56;4989685;28;20038;-52
2023/09/05 08:17:00;;;;;;;1.90;1.60;;;;;;;20.81;60.94;101884.28;4986540;28;20057;-53
2023/09/05 08:19:25;;;;;;;1.48;1.35;;;;;;;20.81;60.87;101884.28;4984984;28;20029;-53
2023/09/05 08:21:51;;;;;;;1.38;1.27;;;;;;;20.81;61.20;101884.28;4984347;28;20034;-52
2023/09/05 08:24:16;;;;;;;1.58;1.30;;;;;;;20.81;61.38;101887.88;4990902;28;20039;-52
2023/09/05 08:26:41;;;;;;;2.05;1.60;;;;;;;20.81;60.95;101881.56;4999694;28;20039;-53
2023/09/05 08:29:07;;;;;;;1.35;1.25;;;;;;;20.82;61.36;101886.00;4988904;28;20042;-53
2023/09/05 08:31:32;;;;;;;1.60;1.38;;;;;;;20.82;61.12;101883.28;4992062;28;20029;-53
2023/09/05 08:33:58;;;;;;;1.60;1.50;;;;;;;20.81;60.91;101879.75;4995504;28;20069;-52
2023/09/05 08:36:24;;;;;;;1.50;1.30;;;;;;;20.81;61.46;101873.44;4993016;28;20069;-53
2023/09/05 08:38:49;;;;;;;1.27;1.17;;;;;;;20.82;61.00;101877.88;4988900;28;20038;-52
2023/09/05 08:41:14;;;;;;;1.42;1.20;;;;;;;20.82;60.97;101873.31;4992971;28;20033;-52
2023/09/05 08:43:40;;;;;;;1.17;1.00;;;;;;;20.82;61.30;101867.06;4988362;28;20634;-51
2023/09/05 08:46:06;;;;;;;2.00;1.50;;;;;;;20.82;61.51;101864.34;4988804;28;20038;-53
2023/09/05 08:48:32;;;;;;;1.30;1.20;;;;;;;20.82;61.12;101867.91;4988046;28;20054;-52
2023/09/05 08:51:04;;;;;;;1.30;1.20;;;;;;;20.82;61.01;101869.75;4988491;28;20030;-52
2023/09/05 08:53:35;;;;;;;2.00;1.48;;;;;;;20.83;61.48;101879.63;4988663;28;20039;-52
2023/09/05 08:56:01;;;;;;;3.20;1.33;;;;;;;20.83;61.45;101882.31;4988515;28;20038;-53
2023/09/05 08:58:28;;;;;;;1.95;1.13;;;;;;;20.83;61.63;101885.88;4988091;28;20033;-53
2023/09/05 09:00:53;;;;;;;1.40;1.30;;;;;;;20.83;61.32;101876.91;4987639;28;20034;-52
2023/09/05 09:03:19;;;;;;;1.40;1.30;;;;;;;20.84;61.17;101881.31;4988544;28;20030;-52
2023/09/05 09:05:49;;;;;;;1.33;1.23;;;;;;;20.83;61.49;101877.75;4988278;28;20041;-53
2023/09/05 09:08:15;;;;;;;1.05;1.00;;;;;;;20.84;61.15;101882.16;4989075;28;20026;-53
2023/09/05 09:10:41;;;;;;;1.85;1.63;;;;;;;20.84;61.46;101878.59;4990880;28;20041;-52
2023/09/05 09:13:19;;;;;;;1.55;1.45;;;;;;;20.85;61.23;101883.03;4990862;28;20030;-53
2023/09/05 09:15:46;;;;;;;1.30;1.20;;;;;;;20.85;61.45;101874.91;4989621;28;20033;-52
2023/09/05 09:18:12;;;;;;;2.05;1.30;;;;;;;20.85;61.54;101885.75;4989637;28;20037;-52
2023/09/05 09:20:45;;;;;;;1.73;1.15;;;;;;;20.85;61.65;101886.59;4990077;28;20512;-52
2023/09/05 09:23:10;;;;;;;1.33;1.23;;;;;;;20.85;61.45;101877.63;4989069;28;20029;-52
2023/09/05 09:25:46;;;;;;;1.10;1.00;;;;;;;20.87;61.60;101886.44;4988890;28;20051;-51
2023/09/05 09:28:23;;;;;;;1.88;1.20;;;;;;;20.86;61.54;101888.28;4989045;28;20026;-52
2023/09/05 09:30:56;;;;;;;1.30;1.20;;;;;;;20.86;61.47;101896.41;4989382;28;20428;-51
2023/09/05 09:33:23;;;;;;;1.40;1.30;;;;;;;20.86;61.23;101892.84;4988440;28;20038;-53
2023/09/05 09:36:00;;;;;;;1.58;1.48;;;;;;;20.87;61.51;101900.84;4988355;28;20511;-53
2023/09/05 09:38:26;;;;;;;1.38;1.27;;;;;;;20.87;61.78;101897.28;4988386;28;20074;-53
2023/09/05 09:40:52;;;;;;;1.88;1.30;;;;;;;20.87;61.26;101902.69;4988050;28;20058;-52
2023/09/05 09:43:18;;;;;;;1.38;1.27;;;;;;;20.87;61.71;101900.84;4989015;28;20417;-53
2023/09/05 09:45:43;;;;;;;1.05;1.05;;;;;;;20.88;61.40;101904.38;4989227;28;20444;-52
2023/09/05 09:48:10;;;;;;;1.30;1.20;;;;;;;20.88;61.22;101901.69;4989122;28;20519;-52
2023/09/05 09:50:36;;;;;;;1.40;1.30;;;;;;;20.88;61.66;101898.97;4989170;28;20034;-52
2023/09/05 09:53:04;;;;;;;1.45;1.35;;;;;;;20.88;61.57;101896.25;4989336;28;20120;-53
2023/09/05 09:55:32;;;;;;;1.88;1.40;;;;;;;20.89;61.87;101898.00;4989295;28;20038;-52
2023/09/05 09:58:04;;;;;;;1.23;1.13;;;;;;;20.89;61.69;101898.00;4988988;28;20022;-53
2023/09/05 10:00:32;;;;;;;1.50;1.40;;;;;;;20.89;61.19;101892.56;4988259;28;20058;-52
2023/09/05 10:03:00;;;;;;;1.30;1.20;;;;;;;20.91;61.83;101887.88;4988142;28;20089;-51
2023/09/05 10:05:26;;;;;;;1.60;1.50;;;;;;;20.91;61.63;101887.03;4988693;28;20480;-52
2023/09/05 10:07:54;;;;;;;1.30;1.20;;;;;;;20.90;61.71;101883.44;4988676;28;20041;-53
2023/09/05 10:10:20;;;;;;;1.40;1.27;;;;;;;20.91;61.64;101890.59;4988839;28;20030;-52
2023/09/05 10:12:46;;;;;;;1.60;1.33;;;;;;;20.92;61.72;101886.03;4994435;28;20385;-53
2023/09/05 10:15:13;;;;;;;1.70;1.50;;;;;;;20.92;61.75;101886.03;4988052;28;20041;-53
2023/09/05 10:17:42;;;;;;;1.42;1.33;;;;;;;20.91;61.47;101879.75;4987929;28;20527;-52
2023/09/05 10:20:14;;;;;;;2.50;1.15;;;;;;;20.93;61.74;101875.06;4987828;28;20106;-53
2023/09/05 10:22:40;;;;;;;1.48;1.38;;;;;;;20.92;61.47;101870.63;4988185;28;20039;-51
2023/09/05 10:25:07;;;;;;;1.40;1.30;;;;;;;20.92;61.55;101881.44;4987485;28;20544;-52
2023/09/05 10:27:33;;;;;;;3.08;1.77;;;;;;;20.93;61.73;101883.19;4984953;28;20469;-53
2023/09/05 10:29:59;;;;;;;1.45;1.25;;;;;;;20.93;61.92;101877.75;4989631;28;20044;-52
2023/09/05 10:32:25;;;;;;;1.48;1.38;;;;;;;20.94;61.47;101876.75;4988877;28;20042;-53
2023/09/05 10:34:50;;;;;;;3.25;1.58;;;;;;;20.93;61.49;101877.75;4988801;28;20353;-52
2023/09/05 10:37:26;;;;;;;1.60;1.50;;;;;;;20.94;61.72;101868.63;4988736;28;20029;-52
2023/09/05 10:39:57;;;;;;;1.67;1.58;;;;;;;20.94;61.72;101868.63;4987710;28;20084;-52
2023/09/05 10:42:32;;;;;;;1.98;1.50;;;;;;;20.96;61.51;101863.94;4987387;28;20054;-53
2023/09/05 10:45:15;;;;;;;1.65;1.48;;;;;;;20.96;61.25;101861.25;4987842;28;20061;-53
2023/09/05 10:47:40;;;;;;;1.73;1.52;;;;;;;20.96;61.45;101869.38;4988258;28;20531;-53
2023/09/05 10:50:07;;;;;;;2.47;1.27;;;;;;;20.97;61.29;101862.94;4987194;28;20026;-52
2023/09/05 10:52:33;;;;;;;1.63;1.52;;;;;;;20.97;61.81;101862.09;4987086;28;20412;-52
2023/09/05 10:55:29;;;;;;;1.30;1.17;;;;;;;21.01;61.72;101863.50;4986810;28;20041;-53
2023/09/05 10:57:55;;;;;;;2.28;1.45;;;;;;;20.99;61.23;101860.09;4985029;28;20070;-52
2023/09/05 11:00:21;;;;;;;1.60;1.50;;;;;;;20.99;61.51;101855.53;4987030;28;20030;-53
2023/09/05 11:02:48;;;;;;;3.00;1.45;;;;;;;20.99;61.42;101850.13;4992248;28;20029;-52
2023/09/05 11:05:18;;;;;;;1.80;1.60;;;;;;;21.00;61.83;101850.97;4986916;28;20030;-53
2023/09/05 11:07:48;;;;;;;1.90;1.63;;;;;;;21.00;61.30;101857.25;4992354;28;20081;-52
2023/09/05 11:10:32;;;;;;;1.55;1.40;;;;;;;21.02;61.83;101860.66;4987397;28;20364;-51
2023/09/05 11:13:14;;;;;;;2.28;1.80;;;;;;;21.02;61.60;101859.81;4992306;28;20034;-52
2023/09/05 11:15:43;;;;;;;1.88;1.50;;;;;;;21.02;61.42;101860.66;4991329;28;20133;-52
2023/09/05 11:18:14;;;;;;;1.48;1.38;;;;;;;21.02;62.03;101855.25;4991474;28;20070;-52
2023/09/05 11:20:48;;;;;;;1.50;1.40;;;;;;;21.05;61.65;101856.81;4974117;28;20126;-52
2023/09/05 11:23:25;;;;;;;1.50;1.40;;;;;;;21.05;61.77;101856.81;4982070;28;20102;-52